createdAt,value
2022-11-02T00:00:03.891Z,88.90
2022-11-02T00:00:13.889Z,88.90
2022-11-02T00:00:23.939Z,88.90
2022-11-02T00:00:34.023Z,88.90
2022-11-02T00:00:44.080Z,88.90
2022-11-02T00:00:54.118Z,88.90
2022-11-02T00:01:04.179Z,88.90
2022-11-02T00:01:14.351Z,88.90
2022-11-02T00:01:24.494Z,88.90
2022-11-02T00:01:34.338Z,88.90
2022-11-02T00:01:44.457Z,88.90
2022-11-02T00:01:54.463Z,88.90
2022-11-02T00:02:04.528Z,88.79
2022-11-02T00:02:14.490Z,88.84
2022-11-02T00:02:24.592Z,88.90
2022-11-02T00:02:34.677Z,88.90
2022-11-02T00:02:44.806Z,88.79
2022-11-02T00:02:54.942Z,88.90
2022-11-02T00:03:05.370Z,88.90
2022-11-02T00:03:15.096Z,88.90
2022-11-02T00:03:25.151Z,88.90
2022-11-02T00:03:35.225Z,88.90
2022-11-02T00:03:45.277Z,88.90
2022-11-02T00:03:55.328Z,88.93
2022-11-02T00:04:05.370Z,88.90
2022-11-02T00:04:15.473Z,88.84
2022-11-02T00:04:25.504Z,88.93
2022-11-02T00:04:35.569Z,88.93
2022-11-02T00:04:45.609Z,88.93
2022-11-02T00:04:55.649Z,88.93
2022-11-02T00:05:05.731Z,88.84
2022-11-02T00:05:15.779Z,88.84
2022-11-02T00:05:25.837Z,88.84
2022-11-02T00:05:35.888Z,88.84
2022-11-02T00:05:45.972Z,88.84
2022-11-02T00:05:56.062Z,88.84
2022-11-02T00:06:06.109Z,88.84
2022-11-02T00:06:16.217Z,88.84
2022-11-02T00:06:26.278Z,88.93
2022-11-02T00:06:36.326Z,88.84
2022-11-02T00:06:46.378Z,88.84
2022-11-02T00:06:56.441Z,88.84
2022-11-02T00:07:06.499Z,88.93
2022-11-02T00:07:16.550Z,88.84
2022-11-02T00:07:26.589Z,88.93
2022-11-02T00:07:36.648Z,88.84
2022-11-02T00:07:46.690Z,88.84
2022-11-02T00:07:56.739Z,88.84
2022-11-02T00:08:06.806Z,88.84
2022-11-02T00:08:16.849Z,88.84
2022-11-02T00:08:26.898Z,88.84
2022-11-02T00:08:36.941Z,88.84
2022-11-02T00:08:46.985Z,88.84
2022-11-02T00:08:57.051Z,88.84
2022-11-02T00:09:07.089Z,88.84
2022-11-02T00:09:17.146Z,88.84
2022-11-02T00:09:27.178Z,88.84
2022-11-02T00:09:37.268Z,88.84
2022-11-02T00:09:47.319Z,88.93
2022-11-02T00:09:57.379Z,88.93
2022-11-02T00:10:07.420Z,88.93
2022-11-02T00:10:17.465Z,88.93
2022-11-02T00:10:27.507Z,88.93
2022-11-02T00:10:37.559Z,88.93
2022-11-02T00:10:47.608Z,88.93
2022-11-02T00:10:57.931Z,88.93
2022-11-02T00:11:07.678Z,88.93
2022-11-02T00:11:17.757Z,88.93
2022-11-02T00:11:27.805Z,88.93
2022-11-02T00:11:37.848Z,88.93
2022-11-02T00:11:47.888Z,88.93
2022-11-02T00:11:57.928Z,88.93
2022-11-02T00:12:07.982Z,88.93
2022-11-02T00:12:18.039Z,88.93
2022-11-02T00:12:28.106Z,88.93
2022-11-02T00:12:38.188Z,88.93
2022-11-02T00:12:48.227Z,88.93
2022-11-02T00:12:58.279Z,88.93
2022-11-02T00:13:08.325Z,88.93
2022-11-02T00:13:18.386Z,88.93
2022-11-02T00:13:28.427Z,88.93
2022-11-02T00:13:38.479Z,88.93
2022-11-02T00:13:48.538Z,88.93
2022-11-02T00:13:58.566Z,88.93
2022-11-02T00:14:08.599Z,88.93
2022-11-02T00:14:18.628Z,88.93
2022-11-02T00:14:28.656Z,88.93
2022-11-02T00:14:38.668Z,88.93
2022-11-02T00:14:48.697Z,88.93
2022-11-02T00:14:58.728Z,88.93
2022-11-02T00:15:08.769Z,88.93
2022-11-02T00:15:18.816Z,88.93
2022-11-02T00:15:28.848Z,88.93
2022-11-02T00:15:38.880Z,88.93
2022-11-02T00:15:48.899Z,88.93
2022-11-02T00:15:58.957Z,88.93
2022-11-02T00:16:09.108Z,88.93
2022-11-02T00:16:19.156Z,88.93
2022-11-02T00:16:29.199Z,88.93
2022-11-02T00:16:39.229Z,88.93
2022-11-02T00:16:49.256Z,89.04
2022-11-02T00:16:59.348Z,89.04
2022-11-02T00:17:09.388Z,89.04
2022-11-02T00:17:19.448Z,88.93
2022-11-02T00:17:29.467Z,88.93
2022-11-02T00:17:39.498Z,88.93
2022-11-02T00:17:49.613Z,88.93
2022-11-02T00:17:59.661Z,89.04
2022-11-02T00:18:09.709Z,88.93
2022-11-02T00:18:19.751Z,88.93
2022-11-02T00:18:29.797Z,89.04
2022-11-02T00:18:39.846Z,89.04
2022-11-02T00:18:49.878Z,88.93
2022-11-02T00:18:59.928Z,88.93
2022-11-02T00:19:09.967Z,89.04
2022-11-02T00:19:20.026Z,88.93
2022-11-02T00:19:30.067Z,88.93
2022-11-02T00:19:40.120Z,88.93
2022-11-02T00:19:50.164Z,88.93
2022-11-02T00:20:00.260Z,88.93
2022-11-02T00:20:10.327Z,88.93
2022-11-02T00:20:20.380Z,88.93
2022-11-02T00:20:30.446Z,88.93
2022-11-02T00:20:40.497Z,88.93
2022-11-02T00:20:50.555Z,88.93
2022-11-02T00:21:00.600Z,88.93
2022-11-02T00:21:10.670Z,88.93
2022-11-02T00:21:20.744Z,88.93
2022-11-02T00:21:30.787Z,88.93
2022-11-02T00:21:40.850Z,88.93
2022-11-02T00:21:50.908Z,88.93
2022-11-02T00:22:00.965Z,88.93
2022-11-02T00:22:11.037Z,88.93
2022-11-02T00:22:21.087Z,88.93
2022-11-02T00:22:31.148Z,88.93
2022-11-02T00:22:41.207Z,88.93
2022-11-02T00:22:51.257Z,88.84
2022-11-02T00:23:01.545Z,88.84
2022-11-02T00:23:11.398Z,88.84
2022-11-02T00:23:21.448Z,88.84
2022-11-02T00:23:31.487Z,88.84
2022-11-02T00:23:41.566Z,88.84
2022-11-02T00:23:51.638Z,88.84
2022-11-02T00:24:01.688Z,88.84
2022-11-02T00:24:11.755Z,88.84
2022-11-02T00:24:21.808Z,88.84
2022-11-02T00:24:31.885Z,88.84
2022-11-02T00:24:41.958Z,88.84
2022-11-02T00:24:52.019Z,88.84
2022-11-02T00:25:02.074Z,88.84
2022-11-02T00:25:12.124Z,88.84
2022-11-02T00:25:22.185Z,88.84
2022-11-02T00:25:32.235Z,88.84
2022-11-02T00:25:42.277Z,88.84
2022-11-02T00:25:52.327Z,88.84
2022-11-02T00:26:02.846Z,88.84
2022-11-02T00:26:12.566Z,88.84
2022-11-02T00:26:22.635Z,88.84
2022-11-02T00:26:32.678Z,88.84
2022-11-02T00:26:42.758Z,88.84
2022-11-02T00:26:52.796Z,88.84
2022-11-02T00:27:02.849Z,88.73
2022-11-02T00:27:12.910Z,88.73
2022-11-02T00:27:22.955Z,88.73
2022-11-02T00:27:33.008Z,88.73
2022-11-02T00:27:43.080Z,88.73
2022-11-02T00:27:53.124Z,88.73
2022-11-02T00:28:03.177Z,88.63
2022-11-02T00:28:13.229Z,88.63
2022-11-02T00:28:23.298Z,88.73
2022-11-02T00:28:33.358Z,88.73
2022-11-02T00:28:43.417Z,88.63
2022-11-02T00:28:53.457Z,88.63
2022-11-02T00:29:03.499Z,88.63
2022-11-02T00:29:13.546Z,88.63
2022-11-02T00:29:23.596Z,88.63
2022-11-02T00:29:34.176Z,88.63
2022-11-02T00:29:43.721Z,88.63
2022-11-02T00:29:53.766Z,88.53
2022-11-02T00:30:03.827Z,88.57
2022-11-02T00:30:13.868Z,88.57
2022-11-02T00:30:23.929Z,88.57
2022-11-02T00:30:33.968Z,88.67
2022-11-02T00:30:44.060Z,88.67
2022-11-02T00:30:54.118Z,88.67
2022-11-02T00:31:04.178Z,88.67
2022-11-02T00:31:14.223Z,88.67
2022-11-02T00:31:24.279Z,88.63
2022-11-02T00:31:34.324Z,88.67
2022-11-02T00:31:44.366Z,88.57
2022-11-02T00:31:54.445Z,88.57
2022-11-02T00:32:04.506Z,88.57
2022-11-02T00:32:14.557Z,88.57
2022-11-02T00:32:24.605Z,88.53
2022-11-02T00:32:34.656Z,88.57
2022-11-02T00:32:44.714Z,88.57
2022-11-02T00:32:54.777Z,88.57
2022-11-02T00:33:05.272Z,88.57
2022-11-02T00:33:14.895Z,88.47
2022-11-02T00:33:24.936Z,88.47
2022-11-02T00:33:34.985Z,88.47
2022-11-02T00:33:45.044Z,88.47
2022-11-02T00:33:55.097Z,88.47
2022-11-02T00:34:05.148Z,88.47
2022-11-02T00:34:15.204Z,88.47
2022-11-02T00:34:25.286Z,88.47
2022-11-02T00:34:35.336Z,88.37
2022-11-02T00:34:45.384Z,88.37
2022-11-02T00:34:55.438Z,88.37
2022-11-02T00:35:05.494Z,88.37
2022-11-02T00:35:15.549Z,88.37
2022-11-02T00:35:25.617Z,88.37
2022-11-02T00:35:35.687Z,88.26
2022-11-02T00:35:45.726Z,88.37
2022-11-02T00:35:55.776Z,88.37
2022-11-02T00:36:05.815Z,88.37
2022-11-02T00:36:15.855Z,88.37
2022-11-02T00:36:25.887Z,88.37
2022-11-02T00:36:35.934Z,88.37
2022-11-02T00:36:45.987Z,88.37
2022-11-02T00:36:56.036Z,88.37
2022-11-02T00:37:06.078Z,88.37
2022-11-02T00:37:16.116Z,88.37
2022-11-02T00:37:26.221Z,88.37
2022-11-02T00:37:36.281Z,88.37
2022-11-02T00:37:46.347Z,88.37
2022-11-02T00:37:56.395Z,88.37
2022-11-02T00:38:06.915Z,88.37
2022-11-02T00:38:16.541Z,88.37
2022-11-02T00:38:26.578Z,88.37
2022-11-02T00:38:36.685Z,88.37
2022-11-02T00:38:46.716Z,88.37
2022-11-02T00:38:56.766Z,88.37
2022-11-02T00:39:06.828Z,88.37
2022-11-02T00:39:16.866Z,88.37
2022-11-02T00:39:26.925Z,88.37
2022-11-02T00:39:36.965Z,88.37
2022-11-02T00:39:47.016Z,88.26
2022-11-02T00:39:57.055Z,88.26
2022-11-02T00:40:07.136Z,88.26
2022-11-02T00:40:17.166Z,88.26
2022-11-02T00:40:27.215Z,88.26
2022-11-02T00:40:37.275Z,88.26
2022-11-02T00:40:47.345Z,88.26
2022-11-02T00:40:57.386Z,88.26
2022-11-02T00:41:07.439Z,88.17
2022-11-02T00:41:17.474Z,88.26
2022-11-02T00:41:27.525Z,88.17
2022-11-02T00:41:37.566Z,88.17
2022-11-02T00:41:47.647Z,88.17
2022-11-02T00:41:57.676Z,88.17
2022-11-02T00:42:07.761Z,88.17
2022-11-02T00:42:17.786Z,88.17
2022-11-02T00:42:27.836Z,88.17
2022-11-02T00:42:37.879Z,88.17
2022-11-02T00:42:47.945Z,88.17
2022-11-02T00:42:57.996Z,88.17
2022-11-02T00:43:08.068Z,88.17
2022-11-02T00:43:18.106Z,88.06
2022-11-02T00:43:28.157Z,88.06
2022-11-02T00:43:38.243Z,88.06
2022-11-02T00:43:48.293Z,88.06
2022-11-02T00:43:58.336Z,88.06
2022-11-02T00:44:08.386Z,88.06
2022-11-02T00:44:18.425Z,88.06
2022-11-02T00:44:28.456Z,88.06
2022-11-02T00:44:38.515Z,88.06
2022-11-02T00:44:48.584Z,88.06
2022-11-02T00:44:58.636Z,88.06
2022-11-02T00:45:08.715Z,88.06
2022-11-02T00:45:18.805Z,88.06
2022-11-02T00:45:28.875Z,88.06
2022-11-02T00:45:38.915Z,88.06
2022-11-02T00:45:48.983Z,87.96
2022-11-02T00:45:59.015Z,87.96
2022-11-02T00:46:09.065Z,87.96
2022-11-02T00:46:19.125Z,87.96
2022-11-02T00:46:29.188Z,88.06
2022-11-02T00:46:39.256Z,88.06
2022-11-02T00:46:49.336Z,87.96
2022-11-02T00:46:59.392Z,87.96
2022-11-02T00:47:09.464Z,87.96
2022-11-02T00:47:19.524Z,88.06
2022-11-02T00:47:29.605Z,88.06
2022-11-02T00:47:39.675Z,88.06
2022-11-02T00:47:49.734Z,88.06
2022-11-02T00:47:59.776Z,88.06
2022-11-02T00:48:09.845Z,88.06
2022-11-02T00:48:19.905Z,87.96
2022-11-02T00:48:29.964Z,87.96
2022-11-02T00:48:40.016Z,87.96
2022-11-02T00:48:50.164Z,87.96
2022-11-02T00:49:00.233Z,87.96
2022-11-02T00:49:10.273Z,87.96
2022-11-02T00:49:20.315Z,87.96
2022-11-02T00:49:30.363Z,87.96
2022-11-02T00:49:40.425Z,87.96
2022-11-02T00:49:50.473Z,87.96
2022-11-02T00:50:00.545Z,87.96
2022-11-02T00:50:10.603Z,87.96
2022-11-02T00:50:20.656Z,87.96
2022-11-02T00:50:30.706Z,87.96
2022-11-02T00:50:40.800Z,87.96
2022-11-02T00:50:50.842Z,87.96
2022-11-02T00:51:00.895Z,87.96
2022-11-02T00:51:10.960Z,87.85
2022-11-02T00:51:21.015Z,87.85
2022-11-02T00:51:31.066Z,87.85
2022-11-02T00:51:41.147Z,87.96
2022-11-02T00:51:51.197Z,87.96
2022-11-02T00:52:01.265Z,87.96
2022-11-02T00:52:11.317Z,87.85
2022-11-02T00:52:21.364Z,87.85
2022-11-02T00:52:31.446Z,87.85
2022-11-02T00:52:41.505Z,87.96
2022-11-02T00:52:51.557Z,87.96
2022-11-02T00:53:01.607Z,87.96
2022-11-02T00:53:11.655Z,87.96
2022-11-02T00:53:21.727Z,87.96
2022-11-02T00:53:31.801Z,87.85
2022-11-02T00:53:41.885Z,87.85
2022-11-02T00:53:51.934Z,87.85
2022-11-02T00:54:01.983Z,87.85
2022-11-02T00:54:12.035Z,87.85
2022-11-02T00:54:25.904Z,87.85
2022-11-02T00:54:33.054Z,87.85
2022-11-02T00:54:43.217Z,87.85
2022-11-02T00:54:53.264Z,87.85
2022-11-02T00:55:03.335Z,87.85
2022-11-02T00:55:13.405Z,87.85
2022-11-02T00:55:23.448Z,87.85
2022-11-02T00:55:33.485Z,87.85
2022-11-02T00:55:43.556Z,87.85
2022-11-02T00:55:53.625Z,87.85
2022-11-02T00:56:03.685Z,87.85
2022-11-02T00:56:13.757Z,87.85
2022-11-02T00:56:23.805Z,87.76
2022-11-02T00:56:33.854Z,87.76
2022-11-02T00:56:43.913Z,87.76
2022-11-02T00:56:53.986Z,87.76
2022-11-02T00:57:04.051Z,87.79
2022-11-02T00:57:14.084Z,87.79
2022-11-02T00:57:24.135Z,87.65
2022-11-02T00:57:34.197Z,87.65
2022-11-02T00:57:44.242Z,87.65
2022-11-02T00:57:54.285Z,87.65
2022-11-02T00:58:04.732Z,87.70
2022-11-02T00:58:14.367Z,87.70
2022-11-02T00:58:24.413Z,87.79
2022-11-02T00:58:34.463Z,87.70
2022-11-02T00:58:44.505Z,87.65
2022-11-02T00:58:54.584Z,87.70
2022-11-02T00:59:04.644Z,87.70
2022-11-02T00:59:14.706Z,87.70
2022-11-02T00:59:24.761Z,87.59
2022-11-02T00:59:34.814Z,87.59
2022-11-02T00:59:44.864Z,87.59
2022-11-02T00:59:54.924Z,87.59
2022-11-02T01:00:04.975Z,87.59
2022-11-02T01:00:15.046Z,87.59
2022-11-02T01:00:25.105Z,87.59
2022-11-02T01:00:35.183Z,87.59
2022-11-02T01:00:45.233Z,87.59
2022-11-02T01:00:55.276Z,87.59
2022-11-02T01:01:05.393Z,87.59
2022-11-02T01:01:15.625Z,87.59
2022-11-02T01:01:25.706Z,87.59
2022-11-02T01:01:35.762Z,87.59
2022-11-02T01:01:45.781Z,87.59
2022-11-02T01:01:55.853Z,87.59
2022-11-02T01:02:06.074Z,87.59
2022-11-02T01:02:16.202Z,87.59
2022-11-02T01:02:26.279Z,87.59
2022-11-02T01:02:36.337Z,87.59
2022-11-02T01:02:46.355Z,87.59
2022-11-02T01:02:56.324Z,87.59
2022-11-02T01:03:06.394Z,87.59
2022-11-02T01:03:16.456Z,87.59
2022-11-02T01:03:26.522Z,87.49
2022-11-02T01:03:36.587Z,87.49
2022-11-02T01:03:46.664Z,87.49
2022-11-02T01:03:56.727Z,87.49
2022-11-02T01:04:06.784Z,87.38
2022-11-02T01:04:16.843Z,87.38
2022-11-02T01:04:26.976Z,87.38
2022-11-02T01:04:37.044Z,87.49
2022-11-02T01:04:47.091Z,87.49
2022-11-02T01:04:57.134Z,87.38
2022-11-02T01:05:07.193Z,87.38
2022-11-02T01:05:17.244Z,87.38
2022-11-02T01:05:27.305Z,87.38
2022-11-02T01:05:37.364Z,87.38
2022-11-02T01:05:47.423Z,87.38
2022-11-02T01:05:57.495Z,87.38
2022-11-02T01:06:07.544Z,87.38
2022-11-02T01:06:17.604Z,87.38
2022-11-02T01:06:27.675Z,87.38
2022-11-02T01:06:37.743Z,87.38
2022-11-02T01:06:47.812Z,87.38
2022-11-02T01:06:57.881Z,87.38
2022-11-02T01:07:07.984Z,87.38
2022-11-02T01:07:18.023Z,87.38
2022-11-02T01:07:28.073Z,87.38
2022-11-02T01:07:38.123Z,87.38
2022-11-02T01:07:48.174Z,87.49
2022-11-02T01:07:58.223Z,87.49
2022-11-02T01:08:08.271Z,87.49
2022-11-02T01:08:18.325Z,87.49
2022-11-02T01:08:28.374Z,87.49
2022-11-02T01:08:38.426Z,87.49
2022-11-02T01:08:48.473Z,87.38
2022-11-02T01:08:58.534Z,87.49
2022-11-02T01:09:08.594Z,87.38
2022-11-02T01:09:18.633Z,87.38
2022-11-02T01:09:28.683Z,87.38
2022-11-02T01:09:38.779Z,87.38
2022-11-02T01:09:48.803Z,87.38
2022-11-02T01:09:58.874Z,87.38
2022-11-02T01:10:08.929Z,87.38
2022-11-02T01:10:18.987Z,87.38
2022-11-02T01:10:29.046Z,87.38
2022-11-02T01:10:41.629Z,87.38
2022-11-02T01:10:50.085Z,87.38
2022-11-02T01:11:00.143Z,87.38
2022-11-02T01:11:10.194Z,87.38
2022-11-02T01:11:20.253Z,87.38
2022-11-02T01:11:30.293Z,87.38
2022-11-02T01:11:40.344Z,87.38
2022-11-02T01:11:50.391Z,87.38
2022-11-02T01:12:00.436Z,87.49
2022-11-02T01:12:10.483Z,87.49
2022-11-02T01:12:20.564Z,87.49
2022-11-02T01:12:30.634Z,87.49
2022-11-02T01:12:40.688Z,87.49
2022-11-02T01:12:50.743Z,87.49
2022-11-02T01:13:00.804Z,87.49
2022-11-02T01:13:10.876Z,87.49
2022-11-02T01:13:20.947Z,87.38
2022-11-02T01:13:30.986Z,87.38
2022-11-02T01:13:41.044Z,87.38
2022-11-02T01:13:51.093Z,87.38
2022-11-02T01:14:01.161Z,87.38
2022-11-02T01:14:11.203Z,87.38
2022-11-02T01:14:21.268Z,87.38
2022-11-02T01:14:31.313Z,87.38
2022-11-02T01:14:41.353Z,87.38
2022-11-02T01:14:51.404Z,87.38
2022-11-02T01:15:01.466Z,87.38
2022-11-02T01:15:11.513Z,87.38
2022-11-02T01:15:21.584Z,87.38
2022-11-02T01:15:31.647Z,87.38
2022-11-02T01:15:41.694Z,87.38
2022-11-02T01:15:51.746Z,87.38
2022-11-02T01:16:01.782Z,87.38
2022-11-02T01:16:11.843Z,87.38
2022-11-02T01:16:21.894Z,87.38
2022-11-02T01:16:31.998Z,87.38
2022-11-02T01:16:42.092Z,87.38
2022-11-02T01:16:52.172Z,87.38
2022-11-02T01:17:02.233Z,87.38
2022-11-02T01:17:12.295Z,87.38
2022-11-02T01:17:22.345Z,87.38
2022-11-02T01:17:32.413Z,87.38
2022-11-02T01:17:42.476Z,87.38
2022-11-02T01:17:52.514Z,87.38
2022-11-02T01:18:02.847Z,87.38
2022-11-02T01:18:12.601Z,87.38
2022-11-02T01:18:22.644Z,87.38
2022-11-02T01:18:32.703Z,87.38
2022-11-02T01:18:42.762Z,87.38
2022-11-02T01:18:52.813Z,87.38
2022-11-02T01:19:02.856Z,87.38
2022-11-02T01:19:12.924Z,87.38
2022-11-02T01:19:22.975Z,87.38
2022-11-02T01:19:33.038Z,87.49
2022-11-02T01:19:43.082Z,87.49
2022-11-02T01:19:53.143Z,87.49
2022-11-02T01:20:03.205Z,87.49
2022-11-02T01:20:13.313Z,87.38
2022-11-02T01:20:23.364Z,87.38
2022-11-02T01:20:33.406Z,87.38
2022-11-02T01:20:43.452Z,87.49
2022-11-02T01:20:53.493Z,87.53
2022-11-02T01:21:03.534Z,87.49
2022-11-02T01:21:13.591Z,87.49
2022-11-02T01:21:23.643Z,87.49
2022-11-02T01:21:33.695Z,87.53
2022-11-02T01:21:43.757Z,87.49
2022-11-02T01:21:53.821Z,87.49
2022-11-02T01:22:03.884Z,87.38
2022-11-02T01:22:13.922Z,87.43
2022-11-02T01:22:23.970Z,87.43
2022-11-02T01:22:34.022Z,87.43
2022-11-02T01:22:44.091Z,87.38
2022-11-02T01:22:54.154Z,87.38
2022-11-02T01:23:04.176Z,87.43
2022-11-02T01:23:14.352Z,87.43
2022-11-02T01:23:24.520Z,87.38
2022-11-02T01:23:34.584Z,87.43
2022-11-02T01:23:44.593Z,87.43
2022-11-02T01:23:54.764Z,87.43
2022-11-02T01:24:04.923Z,87.43
2022-11-02T01:24:14.940Z,87.43
2022-11-02T01:24:25.033Z,87.43
2022-11-02T01:24:35.035Z,87.43
2022-11-02T01:24:45.212Z,87.43
2022-11-02T01:24:55.211Z,87.43
2022-11-02T01:25:05.373Z,87.43
2022-11-02T01:25:15.550Z,87.43
2022-11-02T01:25:25.714Z,87.43
2022-11-02T01:25:35.882Z,87.43
2022-11-02T01:25:46.041Z,87.43
2022-11-02T01:25:56.214Z,87.43
2022-11-02T01:26:06.417Z,87.43
2022-11-02T01:26:16.413Z,87.43
2022-11-02T01:26:26.582Z,87.43
2022-11-02T01:26:36.763Z,87.43
2022-11-02T01:26:46.762Z,87.43
2022-11-02T01:26:56.942Z,87.43
2022-11-02T01:27:07.102Z,87.43
2022-11-02T01:27:17.274Z,87.43
2022-11-02T01:27:27.445Z,87.43
2022-11-02T01:27:37.612Z,87.43
2022-11-02T01:27:47.614Z,87.43
2022-11-02T01:27:57.801Z,87.43
2022-11-02T01:28:07.800Z,87.43
2022-11-02T01:28:17.963Z,87.43
2022-11-02T01:28:28.139Z,87.43
2022-11-02T01:28:38.303Z,87.43
2022-11-02T01:28:48.465Z,87.43
2022-11-02T01:28:58.481Z,87.43
2022-11-02T01:29:08.482Z,87.32
2022-11-02T01:29:18.662Z,87.32
2022-11-02T01:29:28.655Z,87.43
2022-11-02T01:29:38.672Z,87.43
2022-11-02T01:29:48.853Z,87.43
2022-11-02T01:29:59.023Z,87.43
2022-11-02T01:30:09.021Z,87.43
2022-11-02T01:30:19.201Z,87.43
2022-11-02T01:30:29.191Z,87.43
2022-11-02T01:30:39.360Z,87.43
2022-11-02T01:30:49.521Z,87.32
2022-11-02T01:30:59.693Z,87.43
2022-11-02T01:31:09.871Z,87.32
2022-11-02T01:31:20.056Z,87.43
2022-11-02T01:31:30.060Z,87.43
2022-11-02T01:31:40.063Z,87.43
2022-11-02T01:31:50.222Z,87.32
2022-11-02T01:32:00.223Z,87.32
2022-11-02T01:32:10.401Z,87.32
2022-11-02T01:32:20.422Z,87.32
2022-11-02T01:32:30.432Z,87.32
2022-11-02T01:32:40.430Z,87.32
2022-11-02T01:32:50.591Z,87.43
2022-11-02T01:33:00.761Z,87.43
2022-11-02T01:33:10.936Z,87.43
2022-11-02T01:33:21.092Z,87.32
2022-11-02T01:33:31.272Z,87.32
2022-11-02T01:33:41.262Z,87.32
2022-11-02T01:33:51.433Z,87.32
2022-11-02T01:34:01.424Z,87.32
2022-11-02T01:34:11.591Z,87.32
2022-11-02T01:34:21.802Z,87.32
2022-11-02T01:34:31.795Z,87.32
2022-11-02T01:34:41.963Z,87.32
2022-11-02T01:34:52.132Z,87.32
2022-11-02T01:35:02.131Z,87.32
2022-11-02T01:35:12.304Z,87.32
2022-11-02T01:35:22.312Z,87.32
2022-11-02T01:35:32.492Z,87.32
2022-11-02T01:35:42.493Z,87.32
2022-11-02T01:35:52.687Z,87.23
2022-11-02T01:36:02.822Z,87.23
2022-11-02T01:36:13.064Z,87.32
2022-11-02T01:36:33.181Z,87.32
2022-11-02T01:36:43.167Z,87.32
2022-11-02T01:36:53.349Z,87.32
2022-11-02T01:37:03.342Z,87.32
2022-11-02T01:37:13.511Z,87.32
2022-11-02T01:37:23.691Z,87.32
2022-11-02T01:37:33.707Z,87.32
2022-11-02T01:37:43.691Z,87.32
2022-11-02T01:37:53.859Z,87.32
2022-11-02T01:38:04.221Z,87.32
2022-11-02T01:38:13.893Z,87.32
2022-11-02T01:38:24.089Z,87.23
2022-11-02T01:38:34.063Z,87.32
2022-11-02T01:38:44.212Z,87.32
2022-11-02T01:38:54.382Z,87.32
2022-11-02T01:39:04.456Z,87.32
2022-11-02T01:39:14.614Z,87.32
2022-11-02T01:39:24.781Z,87.23
2022-11-02T01:39:34.954Z,87.23
2022-11-02T01:39:44.991Z,87.23
2022-11-02T01:39:55.162Z,87.23
2022-11-02T01:40:05.169Z,87.23
2022-11-02T01:40:15.163Z,87.23
2022-11-02T01:40:25.342Z,87.23
2022-11-02T01:40:35.341Z,87.12
2022-11-02T01:40:45.521Z,87.12
2022-11-02T01:40:55.693Z,87.12
2022-11-02T01:41:05.861Z,87.12
2022-11-02T01:41:15.863Z,87.12
2022-11-02T01:41:26.041Z,87.12
2022-11-02T01:41:36.081Z,87.12
2022-11-02T01:41:46.132Z,87.12
2022-11-02T01:41:56.179Z,87.12
2022-11-02T01:42:06.231Z,87.12
2022-11-02T01:42:16.312Z,87.02
2022-11-02T01:42:26.372Z,87.02
2022-11-02T01:42:36.411Z,87.02
2022-11-02T01:42:46.475Z,87.02
2022-11-02T01:42:56.529Z,87.02
2022-11-02T01:43:06.581Z,87.02
2022-11-02T01:43:16.633Z,87.02
2022-11-02T01:43:26.691Z,87.02
2022-11-02T01:43:36.734Z,87.02
2022-11-02T01:43:46.799Z,87.02
2022-11-02T01:43:56.840Z,87.12
2022-11-02T01:44:06.888Z,87.02
2022-11-02T01:44:16.930Z,87.12
2022-11-02T01:44:27.088Z,87.12
2022-11-02T01:44:37.031Z,87.12
2022-11-02T01:44:47.122Z,87.12
2022-11-02T01:44:57.161Z,87.12
2022-11-02T01:45:07.200Z,87.12
2022-11-02T01:45:17.248Z,87.12
2022-11-02T01:45:27.320Z,87.12
2022-11-02T01:45:37.379Z,87.12
2022-11-02T01:45:47.450Z,87.12
2022-11-02T01:45:57.491Z,87.02
2022-11-02T01:46:07.540Z,87.02
2022-11-02T01:46:17.581Z,87.02
2022-11-02T01:46:27.686Z,87.02
2022-11-02T01:46:37.719Z,87.02
2022-11-02T01:46:47.750Z,87.02
2022-11-02T01:46:57.789Z,87.02
2022-11-02T01:47:07.840Z,87.02
2022-11-02T01:47:17.883Z,87.02
2022-11-02T01:47:27.954Z,87.02
2022-11-02T01:47:38.003Z,87.02
2022-11-02T01:47:48.049Z,87.02
2022-11-02T01:47:58.091Z,87.02
2022-11-02T01:48:08.141Z,87.02
2022-11-02T01:48:18.247Z,86.91
2022-11-02T01:48:28.272Z,86.91
2022-11-02T01:48:38.320Z,86.91
2022-11-02T01:48:48.350Z,86.91
2022-11-02T01:48:58.390Z,86.91
2022-11-02T01:49:08.431Z,86.91
2022-11-02T01:49:18.499Z,86.91
2022-11-02T01:49:28.581Z,86.91
2022-11-02T01:49:38.640Z,86.91
2022-11-02T01:49:48.671Z,86.91
2022-11-02T01:49:58.711Z,86.82
2022-11-02T01:50:08.751Z,86.82
2022-11-02T01:50:18.798Z,86.82
2022-11-02T01:50:28.829Z,86.82
2022-11-02T01:50:38.871Z,86.82
2022-11-02T01:50:48.911Z,86.82
2022-11-02T01:50:58.972Z,86.71
2022-11-02T01:51:09.029Z,86.71
2022-11-02T01:51:19.078Z,86.71
2022-11-02T01:51:29.151Z,86.71
2022-11-02T01:51:39.209Z,86.71
2022-11-02T01:51:49.282Z,86.71
2022-11-02T01:51:59.330Z,86.82
2022-11-02T01:52:09.370Z,86.82
2022-11-02T01:52:19.449Z,86.71
2022-11-02T01:52:29.490Z,86.71
2022-11-02T01:52:39.540Z,86.71
2022-11-02T01:52:49.583Z,86.71
2022-11-02T01:52:59.632Z,86.71
2022-11-02T01:53:09.700Z,86.71
2022-11-02T01:53:19.760Z,86.76
2022-11-02T01:53:29.797Z,86.71
2022-11-02T01:53:39.840Z,86.71
2022-11-02T01:53:49.920Z,86.71
2022-11-02T01:53:59.971Z,86.76
2022-11-02T01:54:10.042Z,86.71
2022-11-02T01:54:20.090Z,86.71
2022-11-02T01:54:30.131Z,86.76
2022-11-02T01:54:40.228Z,86.76
2022-11-02T01:54:50.320Z,86.71
2022-11-02T01:55:00.380Z,86.71
2022-11-02T01:55:10.441Z,86.76
2022-11-02T01:55:20.480Z,86.71
2022-11-02T01:55:30.531Z,86.71
2022-11-02T01:55:41.434Z,86.65
2022-11-02T01:55:50.811Z,86.65
2022-11-02T01:56:00.878Z,86.61
2022-11-02T01:56:10.963Z,86.65
2022-11-02T01:56:21.050Z,86.65
2022-11-02T01:56:31.082Z,86.61
2022-11-02T01:56:41.132Z,86.65
2022-11-02T01:56:51.170Z,86.65
2022-11-02T01:57:01.236Z,86.55
2022-11-02T01:57:11.289Z,86.55
2022-11-02T01:57:21.340Z,86.55
2022-11-02T01:57:31.400Z,86.55
2022-11-02T01:57:41.450Z,86.55
2022-11-02T01:57:51.517Z,86.55
2022-11-02T01:58:01.757Z,86.55
2022-11-02T01:58:11.658Z,86.55
2022-11-02T01:58:21.708Z,86.55
2022-11-02T01:58:31.762Z,86.55
2022-11-02T01:58:41.810Z,86.55
2022-11-02T01:58:51.860Z,86.55
2022-11-02T01:59:01.899Z,86.55
2022-11-02T01:59:11.958Z,86.55
2022-11-02T01:59:21.997Z,86.44
2022-11-02T01:59:32.040Z,86.44
2022-11-02T01:59:42.089Z,86.44
2022-11-02T01:59:52.150Z,86.44
2022-11-02T02:00:02.183Z,86.44
2022-11-02T02:00:12.253Z,86.44
2022-11-02T02:00:22.289Z,86.44
2022-11-02T02:00:32.365Z,86.44
2022-11-02T02:00:42.400Z,86.44
2022-11-02T02:00:52.459Z,86.44
2022-11-02T02:01:02.519Z,86.44
2022-11-02T02:01:12.630Z,86.44
2022-11-02T02:01:22.827Z,86.35
2022-11-02T02:01:32.884Z,86.35
2022-11-02T02:01:42.898Z,86.35
2022-11-02T02:01:52.917Z,86.35
2022-11-02T02:02:03.163Z,86.35
2022-11-02T02:02:13.206Z,86.35
2022-11-02T02:02:23.298Z,86.24
2022-11-02T02:02:33.331Z,86.24
2022-11-02T02:02:43.532Z,86.24
2022-11-02T02:02:53.465Z,86.24
2022-11-02T02:03:03.562Z,86.24
2022-11-02T02:03:13.638Z,86.24
2022-11-02T02:03:23.668Z,86.24
2022-11-02T02:03:33.740Z,86.24
2022-11-02T02:03:43.769Z,86.24
2022-11-02T02:03:53.828Z,86.24
2022-11-02T02:04:03.888Z,86.14
2022-11-02T02:04:13.931Z,86.24
2022-11-02T02:04:24.021Z,86.24
2022-11-02T02:04:34.079Z,86.24
2022-11-02T02:04:44.139Z,86.24
2022-11-02T02:04:54.190Z,86.24
2022-11-02T02:05:04.230Z,86.14
2022-11-02T02:05:14.281Z,86.14
2022-11-02T02:05:24.329Z,86.14
2022-11-02T02:05:34.367Z,86.04
2022-11-02T02:05:44.498Z,86.14
2022-11-02T02:05:54.540Z,86.14
2022-11-02T02:06:04.600Z,86.14
2022-11-02T02:06:14.679Z,86.14
2022-11-02T02:06:24.699Z,86.14
2022-11-02T02:06:34.759Z,86.04
2022-11-02T02:06:44.807Z,86.04
2022-11-02T02:06:54.869Z,86.04
2022-11-02T02:07:04.917Z,86.04
2022-11-02T02:07:14.971Z,86.04
2022-11-02T02:07:25.029Z,86.04
2022-11-02T02:07:35.079Z,86.04
2022-11-02T02:07:45.127Z,86.04
2022-11-02T02:07:55.169Z,86.04
2022-11-02T02:08:05.586Z,85.94
2022-11-02T02:08:15.259Z,86.04
2022-11-02T02:08:25.313Z,86.04
2022-11-02T02:08:35.339Z,86.04
2022-11-02T02:08:45.480Z,86.04
2022-11-02T02:08:55.519Z,86.04
2022-11-02T02:09:05.579Z,85.94
2022-11-02T02:09:15.630Z,86.04
2022-11-02T02:09:25.679Z,85.94
2022-11-02T02:09:35.725Z,85.94
2022-11-02T02:09:48.756Z,85.94